createdAt,value
2022-11-25T00:01:08.287Z,4.40
2022-11-25T00:03:37.197Z,4.40
2022-11-25T00:06:13.473Z,4.40
2022-11-25T00:08:42.188Z,4.40
2022-11-25T00:11:12.498Z,4.40
2022-11-25T00:13:41.282Z,4.40
2022-11-25T00:16:11.678Z,4.40
2022-11-25T00:18:39.928Z,4.40
2022-11-25T00:21:08.906Z,4.40
2022-11-25T00:23:37.771Z,4.40
2022-11-25T00:26:12.436Z,4.40
2022-11-25T00:28:41.571Z,4.40
2022-11-25T00:31:11.376Z,4.40
2022-11-25T00:33:40.499Z,4.40
2022-11-25T00:36:17.223Z,4.40
2022-11-25T00:38:45.677Z,4.40
2022-11-25T00:41:33.063Z,4.40
2022-11-25T00:44:18.653Z,4.40
2022-11-25T00:46:46.759Z,4.40
2022-11-25T00:49:14.993Z,4.40
2022-11-25T00:51:42.985Z,4.40
2022-11-25T00:54:10.998Z,4.50
2022-11-25T00:56:41.131Z,4.40
2022-11-25T00:59:09.233Z,4.40
2022-11-25T01:01:37.898Z,4.40
2022-11-25T01:04:06.780Z,4.40
2022-11-25T01:06:35.234Z,4.40
2022-11-25T01:09:03.539Z,4.50
2022-11-25T01:11:31.625Z,4.40
2022-11-25T01:14:01.855Z,4.40
2022-11-25T01:16:31.249Z,4.40
2022-11-25T01:19:00.084Z,4.40
2022-11-25T01:21:29.804Z,4.40
2022-11-25T01:23:59.704Z,4.40
2022-11-25T01:26:28.395Z,4.40
2022-11-25T01:28:58.023Z,4.40
2022-11-25T01:31:29.605Z,4.40
2022-11-25T01:33:59.503Z,4.50
2022-11-25T01:36:28.245Z,4.40
2022-11-25T01:38:58.000Z,4.40
2022-11-25T01:41:28.030Z,4.40
2022-11-25T01:44:12.275Z,4.40
2022-11-25T01:46:58.198Z,4.40
2022-11-25T01:49:31.508Z,4.40
2022-11-25T01:52:03.958Z,4.40
2022-11-25T01:54:36.975Z,4.30
2022-11-25T01:57:10.088Z,4.30
2022-11-25T01:59:45.368Z,4.30
2022-11-25T02:02:15.905Z,4.30
2022-11-25T02:04:45.797Z,4.30
2022-11-25T02:07:20.637Z,4.20
2022-11-25T02:09:49.688Z,4.20
2022-11-25T02:12:21.087Z,4.20
2022-11-25T02:14:51.814Z,4.20
2022-11-25T02:17:21.524Z,4.20
2022-11-25T02:20:01.023Z,4.20
2022-11-25T02:22:45.664Z,4.20
2022-11-25T02:25:18.099Z,4.20
2022-11-25T02:27:48.788Z,4.20
2022-11-25T02:30:16.807Z,4.10
2022-11-25T02:32:45.503Z,4.10
2022-11-25T02:35:29.470Z,4.10
2022-11-25T02:38:07.953Z,4.10
2022-11-25T02:40:43.283Z,4.10
2022-11-25T02:43:11.369Z,4.10
2022-11-25T02:45:48.935Z,4.10
2022-11-25T02:48:17.219Z,4.10
2022-11-25T02:50:45.477Z,4.10
2022-11-25T02:53:13.567Z,4.10
2022-11-25T02:55:43.072Z,4.10
2022-11-25T02:58:11.276Z,4.10
2022-11-25T03:00:39.380Z,4.10
2022-11-25T03:03:07.478Z,4.10
2022-11-25T03:05:35.547Z,4.10
2022-11-25T03:08:03.940Z,4.10
2022-11-25T03:10:32.786Z,4.10
2022-11-25T03:13:02.372Z,4.10
2022-11-25T03:15:30.369Z,4.10
2022-11-25T03:17:58.759Z,4.00
2022-11-25T03:20:26.941Z,4.00
2022-11-25T03:22:55.157Z,4.00
2022-11-25T03:25:23.178Z,4.00
2022-11-25T03:27:51.201Z,4.00
2022-11-25T03:30:22.676Z,4.00
2022-11-25T03:32:50.861Z,4.00
2022-11-25T03:35:19.218Z,4.00
2022-11-25T03:37:47.989Z,4.00
2022-11-25T03:40:17.415Z,4.00
2022-11-25T03:42:46.054Z,4.00
2022-11-25T03:45:15.247Z,4.00
2022-11-25T03:47:45.356Z,4.00
2022-11-25T03:50:16.038Z,4.00
2022-11-25T03:52:44.330Z,4.00
2022-11-25T03:55:13.176Z,4.00
2022-11-25T03:57:41.833Z,4.00
2022-11-25T04:00:12.367Z,4.00
2022-11-25T04:02:40.434Z,4.00
2022-11-25T04:05:10.499Z,4.00
2022-11-25T04:07:38.601Z,4.00
2022-11-25T04:10:07.993Z,4.00
2022-11-25T04:12:47.854Z,4.00
2022-11-25T04:15:16.609Z,4.00
2022-11-25T04:17:45.154Z,4.00
2022-11-25T04:20:15.910Z,4.10
2022-11-25T04:22:44.299Z,4.10
2022-11-25T04:25:12.738Z,4.10
2022-11-25T04:27:40.833Z,4.10
2022-11-25T04:30:10.390Z,4.10
2022-11-25T04:32:39.242Z,4.10
2022-11-25T04:35:07.934Z,4.10
2022-11-25T04:37:37.508Z,4.10
2022-11-25T04:40:06.742Z,4.10
2022-11-25T04:42:36.588Z,4.10
2022-11-25T04:45:22.464Z,4.10
2022-11-25T04:47:52.013Z,4.10
2022-11-25T04:50:21.705Z,4.00
2022-11-25T04:52:51.163Z,4.00
2022-11-25T04:55:19.304Z,4.10
2022-11-25T04:57:47.404Z,4.10
2022-11-25T05:00:15.117Z,4.10
2022-11-25T05:02:43.204Z,4.10
2022-11-25T05:05:11.631Z,4.10
2022-11-25T05:07:39.732Z,4.10
2022-11-25T05:10:10.283Z,4.10
2022-11-25T05:12:38.668Z,4.10
2022-11-25T05:15:08.027Z,4.10
2022-11-25T05:17:36.502Z,4.10
2022-11-25T05:20:05.462Z,4.10
2022-11-25T05:22:35.583Z,4.10
2022-11-25T05:25:05.634Z,4.10
2022-11-25T05:27:35.023Z,4.10
2022-11-25T05:30:03.063Z,4.10
2022-11-25T05:32:30.993Z,4.10
2022-11-25T05:34:58.942Z,4.10
2022-11-25T05:37:26.913Z,4.10
2022-11-25T05:39:54.957Z,4.10
2022-11-25T05:42:22.888Z,4.10
2022-11-25T05:44:52.180Z,4.10
2022-11-25T05:47:20.118Z,4.10
2022-11-25T05:49:48.091Z,4.10
2022-11-25T05:52:16.031Z,4.10
2022-11-25T05:54:43.955Z,4.10
2022-11-25T05:57:11.992Z,4.10
2022-11-25T05:59:39.969Z,4.10
2022-11-25T06:02:09.341Z,4.10
2022-11-25T06:04:37.703Z,4.10
2022-11-25T06:07:06.102Z,4.10
2022-11-25T06:09:34.158Z,4.10
2022-11-25T06:12:02.161Z,4.10
2022-11-25T06:14:30.265Z,4.10
2022-11-25T06:16:58.207Z,4.10
2022-11-25T06:19:27.520Z,4.10
2022-11-25T06:21:55.456Z,4.20
2022-11-25T06:24:23.503Z,4.20
2022-11-25T06:26:51.452Z,4.20
2022-11-25T06:29:19.395Z,4.20
2022-11-25T06:31:47.379Z,4.20
2022-11-25T06:34:15.336Z,4.20
2022-11-25T06:36:44.681Z,4.10
2022-11-25T06:39:12.703Z,4.20
2022-11-25T06:41:40.647Z,4.20
2022-11-25T06:44:08.583Z,4.20
2022-11-25T06:46:36.600Z,4.10
2022-11-25T06:49:04.803Z,4.10
2022-11-25T06:51:32.835Z,4.10
2022-11-25T06:54:02.150Z,4.10
2022-11-25T06:56:30.551Z,4.10
2022-11-25T06:58:58.506Z,4.10
2022-11-25T07:01:28.308Z,4.10
2022-11-25T07:03:59.087Z,4.00
2022-11-25T07:06:27.860Z,4.00
2022-11-25T07:08:56.289Z,4.00
2022-11-25T07:11:27.536Z,4.00
2022-11-25T07:13:58.413Z,3.90
2022-11-25T07:16:26.897Z,3.90
2022-11-25T07:18:55.183Z,3.90
2022-11-25T07:21:25.011Z,3.90
2022-11-25T07:23:54.179Z,3.90
2022-11-25T07:26:24.119Z,3.90
2022-11-25T07:28:55.059Z,3.90
2022-11-25T07:31:28.769Z,3.90
2022-11-25T07:34:01.191Z,3.90
2022-11-25T07:36:30.616Z,3.90
2022-11-25T07:38:59.639Z,3.90
2022-11-25T07:41:29.496Z,3.90
2022-11-25T07:44:00.380Z,3.90
2022-11-25T07:46:30.683Z,3.90
2022-11-25T07:49:01.197Z,3.90
2022-11-25T07:51:31.184Z,3.90
2022-11-25T07:54:01.094Z,3.90
2022-11-25T07:56:30.050Z,4.00
2022-11-25T07:58:59.410Z,4.00
2022-11-25T08:01:27.497Z,4.00
2022-11-25T08:03:56.561Z,4.00
2022-11-25T08:06:27.117Z,4.00
2022-11-25T08:08:56.383Z,4.00
2022-11-25T08:11:26.172Z,4.00
2022-11-25T08:13:54.363Z,4.10
2022-11-25T08:16:26.344Z,4.10
2022-11-25T08:18:55.169Z,4.10
2022-11-25T08:21:23.147Z,4.10
2022-11-25T08:23:52.565Z,4.10
2022-11-25T08:26:22.936Z,4.20
2022-11-25T08:28:51.343Z,4.20
2022-11-25T08:31:22.363Z,4.20
2022-11-25T08:33:53.017Z,4.30
2022-11-25T08:36:21.884Z,4.30
2022-11-25T08:38:51.862Z,4.30
2022-11-25T08:41:23.126Z,4.40
2022-11-25T08:43:51.183Z,4.40
2022-11-25T08:46:22.274Z,4.50
2022-11-25T08:48:52.064Z,4.60
2022-11-25T08:51:23.191Z,4.60
2022-11-25T08:53:52.206Z,4.70
2022-11-25T08:56:25.920Z,4.80
2022-11-25T08:58:54.471Z,4.90
2022-11-25T09:01:23.772Z,5.10
2022-11-25T09:03:56.590Z,5.10
2022-11-25T09:06:26.175Z,5.20
2022-11-25T09:08:57.630Z,5.30
2022-11-25T09:11:26.203Z,5.30
2022-11-25T09:13:54.738Z,5.40
2022-11-25T09:16:22.761Z,5.50
2022-11-25T09:18:55.881Z,5.60
2022-11-25T09:21:25.229Z,5.60
2022-11-25T09:23:54.637Z,5.70
2022-11-25T09:26:25.581Z,5.80
2022-11-25T09:28:54.024Z,5.90
2022-11-25T09:31:22.548Z,6.00
2022-11-25T09:33:52.453Z,6.10
2022-11-25T09:36:21.538Z,6.10
2022-11-25T09:38:49.588Z,6.30
2022-11-25T09:41:47.080Z,6.40
2022-11-25T09:44:47.195Z,6.50
2022-11-25T09:47:21.651Z,6.50
2022-11-25T09:50:03.977Z,6.60
2022-11-25T09:52:38.610Z,6.60
2022-11-25T09:55:11.358Z,6.70
2022-11-25T09:57:59.096Z,6.70
2022-11-25T10:00:36.262Z,6.80
2022-11-25T10:03:07.982Z,6.80
2022-11-25T10:05:42.099Z,6.90
2022-11-25T10:08:13.753Z,6.90
2022-11-25T10:10:46.173Z,7.00
2022-11-25T10:13:19.825Z,7.00
2022-11-25T10:15:51.495Z,7.10
2022-11-25T10:18:26.125Z,7.20
2022-11-25T10:20:55.983Z,7.20
2022-11-25T10:23:28.724Z,7.30
2022-11-25T10:26:00.263Z,7.40
2022-11-25T10:28:32.385Z,7.50
2022-11-25T10:31:05.711Z,7.50
2022-11-25T10:33:37.144Z,7.60
2022-11-25T10:36:15.400Z,7.60
2022-11-25T10:38:50.076Z,7.70
2022-11-25T10:41:21.985Z,7.80
2022-11-25T10:43:50.222Z,7.80
2022-11-25T10:46:49.657Z,7.90
2022-11-25T10:49:25.886Z,7.90
2022-11-25T10:51:57.429Z,7.90
2022-11-25T10:54:28.144Z,8.00
2022-11-25T10:56:58.080Z,8.00
2022-11-25T10:59:29.501Z,8.10
2022-11-25T11:02:19.325Z,8.10
2022-11-25T11:04:54.525Z,8.20
2022-11-25T11:07:24.879Z,8.20
2022-11-25T11:09:53.185Z,8.20
2022-11-25T11:12:24.333Z,8.30
2022-11-25T11:14:52.757Z,8.30
2022-11-25T11:17:37.490Z,8.40
2022-11-25T11:20:20.582Z,8.40
2022-11-25T11:22:56.027Z,8.40
2022-11-25T11:25:33.131Z,8.50
2022-11-25T11:28:02.166Z,8.60
2022-11-25T11:30:32.819Z,8.60
2022-11-25T11:33:06.524Z,8.60
2022-11-25T11:35:51.243Z,8.70
2022-11-25T11:38:32.586Z,8.70
2022-11-25T11:41:09.827Z,8.70
2022-11-25T11:43:54.369Z,8.80
2022-11-25T11:46:33.778Z,8.70
2022-11-25T11:49:16.858Z,8.80
2022-11-25T11:51:56.556Z,8.80
2022-11-25T11:54:33.901Z,8.80
2022-11-25T11:57:05.684Z,8.80
2022-11-25T11:59:49.929Z,8.80
2022-11-25T12:02:30.756Z,8.80
2022-11-25T12:05:07.062Z,8.80
2022-11-25T12:07:42.769Z,8.80
2022-11-25T12:10:23.196Z,8.80
2022-11-25T12:12:55.980Z,8.80
2022-11-25T12:15:34.638Z,8.80
2022-11-25T12:18:10.162Z,8.70
2022-11-25T12:20:46.162Z,8.70
2022-11-25T12:23:20.932Z,8.70
2022-11-25T12:25:52.972Z,8.70
2022-11-25T12:28:27.244Z,8.70
2022-11-25T12:31:05.612Z,8.70
2022-11-25T12:33:44.970Z,8.60
2022-11-25T12:36:17.734Z,8.60
2022-11-25T12:38:50.252Z,8.60
2022-11-25T12:41:26.091Z,8.60
2022-11-25T12:44:00.451Z,8.50
2022-11-25T12:46:37.951Z,8.50
2022-11-25T12:49:08.470Z,8.40
2022-11-25T12:52:16.852Z,8.40
2022-11-25T12:55:05.578Z,8.40
2022-11-25T12:58:12.385Z,8.30
2022-11-25T13:01:09.680Z,8.30
2022-11-25T13:04:34.897Z,8.30
2022-11-25T13:07:19.958Z,8.20
2022-11-25T13:10:14.712Z,8.20
2022-11-25T13:12:55.497Z,8.20
2022-11-25T13:15:28.979Z,8.10
2022-11-25T13:18:01.167Z,8.10
2022-11-25T13:20:46.031Z,8.10
2022-11-25T13:23:29.252Z,8.10
2022-11-25T13:26:32.297Z,8.00
2022-11-25T13:29:02.267Z,8.00
2022-11-25T13:31:33.540Z,7.90
2022-11-25T13:34:23.827Z,7.90
2022-11-25T13:36:53.518Z,7.90
2022-11-25T13:39:31.640Z,7.90
2022-11-25T13:42:06.181Z,7.80
2022-11-25T13:44:49.838Z,7.80
2022-11-25T13:47:34.114Z,7.70
2022-11-25T13:50:03.428Z,7.70
2022-11-25T13:52:37.136Z,7.60
2022-11-25T13:55:27.287Z,7.50
2022-11-25T13:58:19.138Z,7.50
2022-11-25T14:01:26.190Z,7.40
2022-11-25T14:04:00.331Z,7.40
2022-11-25T14:06:51.356Z,7.40
2022-11-25T14:09:32.214Z,7.30
2022-11-25T14:12:14.998Z,7.30
2022-11-25T14:15:05.800Z,7.20
2022-11-25T14:18:05.153Z,7.20
2022-11-25T14:20:42.288Z,7.20
2022-11-25T14:23:48.126Z,7.20
2022-11-25T14:26:48.833Z,7.20
2022-11-25T14:29:21.872Z,7.10
2022-11-25T14:31:54.529Z,7.10
2022-11-25T14:34:28.819Z,7.10
2022-11-25T14:37:02.044Z,7.10
2022-11-25T14:39:35.178Z,7.00
2022-11-25T14:42:07.949Z,7.00
2022-11-25T14:44:41.794Z,7.00
2022-11-25T14:47:09.800Z,6.90
2022-11-25T14:50:05.255Z,6.90
2022-11-25T14:52:38.025Z,6.90
2022-11-25T14:55:07.633Z,6.80
2022-11-25T14:57:38.694Z,6.80
2022-11-25T15:00:09.211Z,6.80
2022-11-25T15:02:40.888Z,6.80
2022-11-25T15:05:20.647Z,6.70
2022-11-25T15:07:58.644Z,6.70
2022-11-25T15:10:34.622Z,6.70
2022-11-25T15:13:12.757Z,6.70
2022-11-25T15:15:41.020Z,6.60
2022-11-25T15:18:12.466Z,6.60
2022-11-25T15:20:41.793Z,6.60
2022-11-25T15:23:16.882Z,6.50
2022-11-25T15:25:51.268Z,6.50
2022-11-25T15:28:19.286Z,6.50
2022-11-25T15:30:58.258Z,6.40
2022-11-25T15:33:28.297Z,6.40
2022-11-25T15:35:57.762Z,6.40
2022-11-25T15:38:42.009Z,6.40
2022-11-25T15:41:33.187Z,6.40
2022-11-25T15:44:03.950Z,6.30
2022-11-25T15:46:34.793Z,6.30
2022-11-25T15:49:05.553Z,6.30
2022-11-25T15:51:42.419Z,6.20
2022-11-25T15:54:19.507Z,6.20
2022-11-25T15:56:50.205Z,6.20
2022-11-25T15:59:41.999Z,6.20
2022-11-25T16:02:34.034Z,6.20
2022-11-25T16:05:24.512Z,6.10
2022-11-25T16:08:23.167Z,6.20
2022-11-25T16:10:54.460Z,6.10
2022-11-25T16:13:30.504Z,6.10
2022-11-25T16:16:03.301Z,6.10
2022-11-25T16:18:42.348Z,6.10
2022-11-25T16:21:13.555Z,6.10
2022-11-25T16:23:47.192Z,6.10
2022-11-25T16:26:18.083Z,6.10
2022-11-25T16:28:53.915Z,6.10
2022-11-25T16:31:22.854Z,6.10
2022-11-25T16:33:53.846Z,6.10
2022-11-25T16:36:21.818Z,6.10
2022-11-25T16:38:55.251Z,6.10
2022-11-25T16:41:25.416Z,6.00
2022-11-25T16:43:57.076Z,6.10
2022-11-25T16:46:27.750Z,6.10
2022-11-25T16:48:55.798Z,6.10
2022-11-25T16:51:25.318Z,6.10
2022-11-25T16:53:54.660Z,6.00
2022-11-25T16:56:26.537Z,6.00
2022-11-25T16:58:55.136Z,6.00
2022-11-25T17:01:25.752Z,6.00
2022-11-25T17:03:53.815Z,6.00
2022-11-25T17:06:23.905Z,6.00
2022-11-25T17:08:52.657Z,6.00
2022-11-25T17:11:27.991Z,6.00
2022-11-25T17:13:57.349Z,6.00
2022-11-25T17:16:27.906Z,6.00
2022-11-25T17:18:58.426Z,6.00
2022-11-25T17:21:28.754Z,6.00
2022-11-25T17:24:02.549Z,6.00
2022-11-25T17:26:38.421Z,6.00
2022-11-25T17:29:09.638Z,6.00
2022-11-25T17:31:38.959Z,6.00
2022-11-25T17:34:07.201Z,6.00
2022-11-25T17:36:35.161Z,6.00
2022-11-25T17:39:03.100Z,6.00
2022-11-25T17:41:39.466Z,6.00
2022-11-25T17:44:13.460Z,6.00
2022-11-25T17:46:41.401Z,6.00
2022-11-25T17:49:15.346Z,6.00
2022-11-25T17:51:43.585Z,6.00
2022-11-25T17:54:11.784Z,6.00
2022-11-25T17:56:44.650Z,6.00
2022-11-25T17:59:26.393Z,6.00
2022-11-25T18:01:55.989Z,6.00
2022-11-25T18:04:26.617Z,6.00
2022-11-25T18:06:55.169Z,6.00
2022-11-25T18:09:23.222Z,6.00
2022-11-25T18:11:54.663Z,6.00
2022-11-25T18:14:26.718Z,6.00
2022-11-25T18:16:55.825Z,6.00
2022-11-25T18:19:23.835Z,6.00
2022-11-25T18:21:51.784Z,6.00
2022-11-25T18:24:19.723Z,6.00
2022-11-25T18:26:50.304Z,6.00
2022-11-25T18:29:24.778Z,6.00
2022-11-25T18:31:55.820Z,6.00
2022-11-25T18:34:25.111Z,6.00
2022-11-25T18:36:53.752Z,6.00
2022-11-25T18:39:21.768Z,6.00
2022-11-25T18:41:53.848Z,6.00
2022-11-25T18:44:26.538Z,6.00
2022-11-25T18:46:55.132Z,6.00
2022-11-25T18:49:23.866Z,6.00
2022-11-25T18:51:51.984Z,6.00
2022-11-25T18:54:20.047Z,6.00
2022-11-25T18:56:52.533Z,6.10
2022-11-25T18:59:27.178Z,6.00
2022-11-25T19:01:55.891Z,6.10
2022-11-25T19:04:23.973Z,6.10
2022-11-25T19:06:52.222Z,6.10
2022-11-25T19:09:20.223Z,6.10
2022-11-25T19:11:52.370Z,6.10
2022-11-25T19:14:29.001Z,6.10
2022-11-25T19:16:59.991Z,6.10
2022-11-25T19:19:28.345Z,6.20
2022-11-25T19:21:56.394Z,6.20
2022-11-25T19:24:24.417Z,6.20
2022-11-25T19:26:54.799Z,6.20
2022-11-25T19:29:24.977Z,6.20
2022-11-25T19:31:56.075Z,6.20
2022-11-25T19:34:28.275Z,6.30
2022-11-25T19:36:56.275Z,6.30
2022-11-25T19:39:24.399Z,6.30
2022-11-25T19:41:52.672Z,6.40
2022-11-25T19:44:20.693Z,6.40
2022-11-25T19:47:14.367Z,6.40
2022-11-25T19:49:40.278Z,6.40
2022-11-25T19:52:16.064Z,6.50
2022-11-25T19:54:44.360Z,6.50
2022-11-25T19:57:17.737Z,6.60
2022-11-25T19:59:46.438Z,6.60
2022-11-25T20:02:16.628Z,6.60
2022-11-25T20:04:48.058Z,6.60
2022-11-25T20:07:18.934Z,6.60
2022-11-25T20:09:47.248Z,6.70
2022-11-25T20:12:21.625Z,6.70
2022-11-25T20:14:50.119Z,6.70
2022-11-25T20:17:25.589Z,6.70
2022-11-25T20:19:57.432Z,6.70
2022-11-25T20:22:29.067Z,6.70
2022-11-25T20:24:57.886Z,6.70
2022-11-25T20:27:28.670Z,6.70
2022-11-25T20:29:57.076Z,6.70
2022-11-25T20:32:28.902Z,6.80
2022-11-25T20:34:59.462Z,6.80
2022-11-25T20:37:30.286Z,6.70
2022-11-25T20:40:01.010Z,6.80
2022-11-25T20:42:29.108Z,6.80
2022-11-25T20:44:58.123Z,6.80
2022-11-25T20:47:27.385Z,6.80
2022-11-25T20:49:55.377Z,6.80
2022-11-25T20:52:28.777Z,6.80
2022-11-25T20:54:57.125Z,6.80
2022-11-25T20:57:25.149Z,6.80
2022-11-25T20:59:53.102Z,6.90
2022-11-25T21:02:21.698Z,6.90
2022-11-25T21:04:49.855Z,6.90
2022-11-25T21:07:18.656Z,6.90
2022-11-25T21:09:48.236Z,6.90
2022-11-25T21:12:19.436Z,6.90
2022-11-25T21:14:47.861Z,6.90
2022-11-25T21:17:15.874Z,6.90
2022-11-25T21:19:43.831Z,6.90
2022-11-25T21:22:14.533Z,6.90
2022-11-25T21:24:44.614Z,7.00
2022-11-25T21:27:16.885Z,7.00
2022-11-25T21:29:46.368Z,7.00
2022-11-25T21:32:20.774Z,7.00
2022-11-25T21:34:49.126Z,7.00
2022-11-25T21:37:17.855Z,7.00
2022-11-25T21:39:46.099Z,7.00
2022-11-25T21:42:20.139Z,7.00
2022-11-25T21:44:49.925Z,7.00
2022-11-25T21:47:19.659Z,7.00
2022-11-25T21:49:47.787Z,7.00
2022-11-25T21:52:16.557Z,7.00
2022-11-25T21:54:45.020Z,7.00
2022-11-25T21:57:17.651Z,7.00
2022-11-25T21:59:46.176Z,7.00
2022-11-25T22:02:19.485Z,7.00
2022-11-25T22:04:47.830Z,7.00
2022-11-25T22:07:16.024Z,7.10
2022-11-25T22:09:44.442Z,7.00
2022-11-25T22:12:27.773Z,7.10
2022-11-25T22:14:56.592Z,7.10
2022-11-25T22:17:25.878Z,7.10
2022-11-25T22:19:54.597Z,7.10
2022-11-25T22:22:22.719Z,7.10
2022-11-25T22:24:50.835Z,7.10
2022-11-25T22:27:23.462Z,7.10
2022-11-25T22:29:52.856Z,7.10
2022-11-25T22:32:20.828Z,7.10
2022-11-25T22:34:48.844Z,7.10
2022-11-25T22:37:21.356Z,7.10
2022-11-25T22:39:49.856Z,7.10
2022-11-25T22:42:25.580Z,7.10
2022-11-25T22:44:55.580Z,7.10
2022-11-25T22:47:28.901Z,7.10
2022-11-25T22:49:57.260Z,7.10
2022-11-25T22:52:28.238Z,7.10
2022-11-25T22:54:58.798Z,7.10
2022-11-25T22:57:28.115Z,7.10
2022-11-25T22:59:56.082Z,7.10
2022-11-25T23:02:28.269Z,7.10
2022-11-25T23:04:57.336Z,7.10
2022-11-25T23:07:25.427Z,7.10
2022-11-25T23:09:54.092Z,7.10
2022-11-25T23:12:22.051Z,7.10
2022-11-25T23:14:51.405Z,7.10
2022-11-25T23:17:22.665Z,7.10
2022-11-25T23:19:51.378Z,7.10
2022-11-25T23:22:19.531Z,7.10
2022-11-25T23:24:49.925Z,7.20
2022-11-25T23:27:18.115Z,7.20
2022-11-25T23:29:46.102Z,7.10
2022-11-25T23:32:20.905Z,7.10
2022-11-25T23:34:51.712Z,7.10
2022-11-25T23:37:19.898Z,7.10
2022-11-25T23:39:52.350Z,7.10
2022-11-25T23:42:21.774Z,7.10
2022-11-25T23:44:50.054Z,7.10
2022-11-25T23:47:22.015Z,7.20
2022-11-25T23:49:53.070Z,7.10
2022-11-25T23:52:25.272Z,7.10
2022-11-25T23:54:54.537Z,7.10
2022-11-25T23:57:25.299Z,7.10
2022-11-25T23:59:53.629Z,7.10
